Jansen, Canada
Current Conditions -  °F | °C
As of 12:00 PM on Thursday 23 Oct 2014 (Local Time) from CYXE Reporting Station
Broken Clouds Broken Clouds  
Wind Chill: 44°   Ceiling: 25000
Heat Index: 48°   Visibility: 15mi
Dew Point: 41°   Wind: 9mph
Humidity: 76%   Direction: 170°S
Pressure: 29.61"   Gusts: NA
Location:  51.78°N, 104.72°W
Report Text: CYXE 231800Z 17008KT 15SM SCT140 BKN250 09/05 A2961 RMK AC4CI3 SLP044
Loading
Personal Weather Stations






























Interactive Weather Map
Tropical Storm Tracking
New forecast layout! Learn more

10-Day Weather Forecast

Advertisements
Track Severe Weather on mobile